sensor_id;sensor_type;location;lat;lon;timestamp;P1;durP1;ratioP1;P2;durP2;ratioP2
32329;SDS011;18807;52.434;13.238;2023-05-20T00:04:00;4.88;;;3.80;;
32329;SDS011;18807;52.434;13.238;2023-05-20T00:11:35;6.00;;;3.05;;
32329;SDS011;18807;52.434;13.238;2023-05-20T00:19:10;3.10;;;2.58;;
32329;SDS011;18807;52.434;13.238;2023-05-20T00:26:44;4.75;;;3.08;;
32329;SDS011;18807;52.434;13.238;2023-05-20T00:34:19;3.85;;;3.00;;
32329;SDS011;18807;52.434;13.238;2023-05-20T00:41:53;5.35;;;3.78;;
32329;SDS011;18807;52.434;13.238;2023-05-20T00:49:29;3.17;;;2.63;;
32329;SDS011;18807;52.434;13.238;2023-05-20T00:57:04;2.55;;;2.28;;
32329;SDS011;18807;52.434;13.238;2023-05-20T01:04:40;3.63;;;2.47;;
32329;SDS011;18807;52.434;13.238;2023-05-20T01:12:19;4.20;;;2.58;;
32329;SDS011;18807;52.434;13.238;2023-05-20T01:19:57;6.00;;;3.00;;
32329;SDS011;18807;52.434;13.238;2023-05-20T01:27:34;4.18;;;2.97;;
32329;SDS011;18807;52.434;13.238;2023-05-20T01:35:08;4.53;;;2.60;;
32329;SDS011;18807;52.434;13.238;2023-05-20T01:42:44;3.77;;;3.00;;
32329;SDS011;18807;52.434;13.238;2023-05-20T01:50:24;6.93;;;3.15;;
32329;SDS011;18807;52.434;13.238;2023-05-20T01:58:00;4.47;;;3.20;;
32329;SDS011;18807;52.434;13.238;2023-05-20T02:05:34;4.28;;;2.70;;
32329;SDS011;18807;52.434;13.238;2023-05-20T02:13:10;6.93;;;3.40;;
32329;SDS011;18807;52.434;13.238;2023-05-20T02:20:44;5.85;;;2.90;;
32329;SDS011;18807;52.434;13.238;2023-05-20T02:28:19;5.03;;;4.05;;
32329;SDS011;18807;52.434;13.238;2023-05-20T02:35:53;6.45;;;3.38;;
32329;SDS011;18807;52.434;13.238;2023-05-20T02:43:28;7.15;;;3.13;;
32329;SDS011;18807;52.434;13.238;2023-05-20T02:51:04;4.50;;;2.65;;
32329;SDS011;18807;52.434;13.238;2023-05-20T02:58:39;5.87;;;3.47;;
32329;SDS011;18807;52.434;13.238;2023-05-20T03:06:13;7.53;;;3.47;;
32329;SDS011;18807;52.434;13.238;2023-05-20T03:13:49;5.97;;;3.90;;
32329;SDS011;18807;52.434;13.238;2023-05-20T03:21:23;5.15;;;3.15;;
32329;SDS011;18807;52.434;13.238;2023-05-20T03:36:33;7.80;;;4.35;;
32329;SDS011;18807;52.434;13.238;2023-05-20T03:44:08;8.93;;;5.03;;
32329;SDS011;18807;52.434;13.238;2023-05-20T03:51:42;6.18;;;4.13;;
32329;SDS011;18807;52.434;13.238;2023-05-20T03:59:18;8.20;;;4.43;;
32329;SDS011;18807;52.434;13.238;2023-05-20T04:06:53;5.88;;;4.15;;
32329;SDS011;18807;52.434;13.238;2023-05-20T04:14:29;5.63;;;4.03;;
32329;SDS011;18807;52.434;13.238;2023-05-20T04:22:06;6.95;;;3.42;;
32329;SDS011;18807;52.434;13.238;2023-05-20T04:29:41;6.35;;;4.35;;
32329;SDS011;18807;52.434;13.238;2023-05-20T04:37:17;7.00;;;3.75;;
32329;SDS011;18807;52.434;13.238;2023-05-20T04:44:52;9.02;;;4.10;;
32329;SDS011;18807;52.434;13.238;2023-05-20T04:52:26;6.18;;;4.22;;
32329;SDS011;18807;52.434;13.238;2023-05-20T05:00:02;10.93;;;4.97;;
32329;SDS011;18807;52.434;13.238;2023-05-20T05:07:52;10.32;;;5.25;;
32329;SDS011;18807;52.434;13.238;2023-05-20T05:15:28;7.20;;;4.80;;
32329;SDS011;18807;52.434;13.238;2023-05-20T05:23:02;6.35;;;4.57;;
32329;SDS011;18807;52.434;13.238;2023-05-20T05:30:37;8.75;;;4.22;;
32329;SDS011;18807;52.434;13.238;2023-05-20T05:38:11;10.68;;;4.82;;
32329;SDS011;18807;52.434;13.238;2023-05-20T05:45:47;8.77;;;5.57;;
32329;SDS011;18807;52.434;13.238;2023-05-20T05:53:24;9.40;;;5.30;;
32329;SDS011;18807;52.434;13.238;2023-05-20T06:01:02;7.68;;;5.53;;
32329;SDS011;18807;52.434;13.238;2023-05-20T06:08:36;9.05;;;4.88;;
32329;SDS011;18807;52.434;13.238;2023-05-20T06:16:12;10.52;;;5.75;;
32329;SDS011;18807;52.434;13.238;2023-05-20T06:23:45;8.85;;;5.35;;
32329;SDS011;18807;52.434;13.238;2023-05-20T06:31:21;9.02;;;5.45;;
32329;SDS011;18807;52.434;13.238;2023-05-20T06:38:55;10.68;;;5.88;;
32329;SDS011;18807;52.434;13.238;2023-05-20T06:46:31;9.73;;;5.93;;
32329;SDS011;18807;52.434;13.238;2023-05-20T06:54:05;6.65;;;4.65;;
32329;SDS011;18807;52.434;13.238;2023-05-20T07:01:40;10.88;;;6.70;;
32329;SDS011;18807;52.434;13.238;2023-05-20T07:09:14;9.48;;;6.25;;
32329;SDS011;18807;52.434;13.238;2023-05-20T07:16:50;10.37;;;6.33;;
32329;SDS011;18807;52.434;13.238;2023-05-20T07:24:24;9.27;;;5.53;;
32329;SDS011;18807;52.434;13.238;2023-05-20T07:31:59;11.20;;;5.77;;
32329;SDS011;18807;52.434;13.238;2023-05-20T07:39:33;7.00;;;5.03;;
32329;SDS011;18807;52.434;13.238;2023-05-20T07:47:09;10.73;;;5.75;;
32329;SDS011;18807;52.434;13.238;2023-05-20T07:54:42;8.02;;;5.13;;
32329;SDS011;18807;52.434;13.238;2023-05-20T08:02:18;8.97;;;4.70;;
32329;SDS011;18807;52.434;13.238;2023-05-20T08:09:52;7.32;;;5.15;;
32329;SDS011;18807;52.434;13.238;2023-05-20T08:17:28;9.82;;;5.82;;
32329;SDS011;18807;52.434;13.238;2023-05-20T08:25:02;11.95;;;5.28;;
32329;SDS011;18807;52.434;13.238;2023-05-20T08:32:38;8.15;;;5.57;;
32329;SDS011;18807;52.434;13.238;2023-05-20T08:40:12;9.75;;;5.60;;
32329;SDS011;18807;52.434;13.238;2023-05-20T08:47:47;8.40;;;5.47;;
32329;SDS011;18807;52.434;13.238;2023-05-20T08:55:23;6.50;;;4.72;;
32329;SDS011;18807;52.434;13.238;2023-05-20T09:03:00;10.38;;;5.80;;
32329;SDS011;18807;52.434;13.238;2023-05-20T09:10:35;8.65;;;5.45;;
32329;SDS011;18807;52.434;13.238;2023-05-20T09:18:11;8.63;;;5.38;;
32329;SDS011;18807;52.434;13.238;2023-05-20T09:25:47;8.77;;;6.28;;
32329;SDS011;18807;52.434;13.238;2023-05-20T09:33:25;8.43;;;6.72;;
32329;SDS011;18807;52.434;13.238;2023-05-20T09:41:09;9.45;;;5.75;;
32329;SDS011;18807;52.434;13.238;2023-05-20T09:48:45;10.93;;;6.40;;
32329;SDS011;18807;52.434;13.238;2023-05-20T09:56:20;10.20;;;6.72;;
32329;SDS011;18807;52.434;13.238;2023-05-20T10:03:58;7.93;;;5.57;;
32329;SDS011;18807;52.434;13.238;2023-05-20T10:11:36;11.18;;;6.30;;
32329;SDS011;18807;52.434;13.238;2023-05-20T10:19:22;7.67;;;5.77;;
32329;SDS011;18807;52.434;13.238;2023-05-20T10:27:03;12.55;;;7.18;;
32329;SDS011;18807;52.434;13.238;2023-05-20T10:34:44;10.13;;;7.00;;
32329;SDS011;18807;52.434;13.238;2023-05-20T10:42:27;13.95;;;6.97;;
32329;SDS011;18807;52.434;13.238;2023-05-20T10:50:02;10.43;;;6.90;;
32329;SDS011;18807;52.434;13.238;2023-05-20T10:57:38;12.02;;;7.75;;
32329;SDS011;18807;52.434;13.238;2023-05-20T11:05:13;13.40;;;7.75;;
32329;SDS011;18807;52.434;13.238;2023-05-20T11:12:51;10.88;;;7.00;;
32329;SDS011;18807;52.434;13.238;2023-05-20T11:20:25;12.38;;;8.13;;
32329;SDS011;18807;52.434;13.238;2023-05-20T11:28:01;12.70;;;8.10;;
32329;SDS011;18807;52.434;13.238;2023-05-20T11:35:35;10.52;;;8.23;;
32329;SDS011;18807;52.434;13.238;2023-05-20T11:43:10;9.68;;;7.22;;
32329;SDS011;18807;52.434;13.238;2023-05-20T11:50:46;13.38;;;8.65;;
32329;SDS011;18807;52.434;13.238;2023-05-20T12:05:56;13.68;;;8.23;;
32329;SDS011;18807;52.434;13.238;2023-05-20T12:13:34;9.85;;;7.70;;
32329;SDS011;18807;52.434;13.238;2023-05-20T12:21:08;13.32;;;8.35;;
32329;SDS011;18807;52.434;13.238;2023-05-20T12:28:44;16.05;;;10.35;;
32329;SDS011;18807;52.434;13.238;2023-05-20T12:36:18;10.40;;;7.00;;
32329;SDS011;18807;52.434;13.238;2023-05-20T12:43:53;10.38;;;8.15;;
32329;SDS011;18807;52.434;13.238;2023-05-20T12:51:27;12.57;;;8.02;;
32329;SDS011;18807;52.434;13.238;2023-05-20T12:59:02;9.13;;;7.63;;
32329;SDS011;18807;52.434;13.238;2023-05-20T13:06:36;14.57;;;8.77;;
32329;SDS011;18807;52.434;13.238;2023-05-20T13:14:11;9.73;;;7.90;;
32329;SDS011;18807;52.434;13.238;2023-05-20T13:21:49;11.50;;;8.40;;
32329;SDS011;18807;52.434;13.238;2023-05-20T13:29:24;9.75;;;8.10;;
32329;SDS011;18807;52.434;13.238;2023-05-20T13:36:58;10.50;;;7.05;;
32329;SDS011;18807;52.434;13.238;2023-05-20T13:44:33;9.70;;;7.53;;
32329;SDS011;18807;52.434;13.238;2023-05-20T13:52:07;11.75;;;7.88;;
32329;SDS011;18807;52.434;13.238;2023-05-20T13:59:43;11.27;;;7.53;;
32329;SDS011;18807;52.434;13.238;2023-05-20T14:07:17;10.77;;;7.72;;
32329;SDS011;18807;52.434;13.238;2023-05-20T14:14:52;11.43;;;8.60;;
32329;SDS011;18807;52.434;13.238;2023-05-20T14:22:27;12.38;;;7.78;;
32329;SDS011;18807;52.434;13.238;2023-05-20T14:30:03;10.27;;;7.23;;
32329;SDS011;18807;52.434;13.238;2023-05-20T14:37:38;9.10;;;7.10;;
32329;SDS011;18807;52.434;13.238;2023-05-20T14:45:13;12.17;;;7.77;;
32329;SDS011;18807;52.434;13.238;2023-05-20T14:53:05;9.05;;;6.57;;
32329;SDS011;18807;52.434;13.238;2023-05-20T15:00:40;8.40;;;6.63;;
32329;SDS011;18807;52.434;13.238;2023-05-20T15:08:14;7.82;;;6.70;;
32329;SDS011;18807;52.434;13.238;2023-05-20T15:15:50;8.77;;;7.25;;
32329;SDS011;18807;52.434;13.238;2023-05-20T15:23:24;8.38;;;6.70;;
32329;SDS011;18807;52.434;13.238;2023-05-20T15:30:59;8.73;;;6.90;;
32329;SDS011;18807;52.434;13.238;2023-05-20T15:38:33;8.80;;;6.63;;
32329;SDS011;18807;52.434;13.238;2023-05-20T15:46:09;8.35;;;6.30;;
32329;SDS011;18807;52.434;13.238;2023-05-20T15:53:43;9.68;;;7.28;;
32329;SDS011;18807;52.434;13.238;2023-05-20T16:01:19;7.68;;;6.55;;
32329;SDS011;18807;52.434;13.238;2023-05-20T16:08:54;10.85;;;7.03;;
32329;SDS011;18807;52.434;13.238;2023-05-20T16:16:29;7.03;;;6.30;;
32329;SDS011;18807;52.434;13.238;2023-05-20T16:24:07;7.75;;;5.85;;
32329;SDS011;18807;52.434;13.238;2023-05-20T16:31:42;12.05;;;7.57;;
32329;SDS011;18807;52.434;13.238;2023-05-20T16:39:18;12.85;;;8.35;;
32329;SDS011;18807;52.434;13.238;2023-05-20T16:46:54;5.90;;;5.33;;
32329;SDS011;18807;52.434;13.238;2023-05-20T16:54:27;7.30;;;5.55;;
32329;SDS011;18807;52.434;13.238;2023-05-20T17:02:03;11.65;;;6.25;;
32329;SDS011;18807;52.434;13.238;2023-05-20T17:09:37;7.28;;;5.93;;
32329;SDS011;18807;52.434;13.238;2023-05-20T17:17:12;7.68;;;6.78;;
32329;SDS011;18807;52.434;13.238;2023-05-20T17:24:46;7.72;;;6.05;;
32329;SDS011;18807;52.434;13.238;2023-05-20T17:32:21;10.00;;;7.25;;
32329;SDS011;18807;52.434;13.238;2023-05-20T17:39:55;8.45;;;6.68;;
32329;SDS011;18807;52.434;13.238;2023-05-20T17:47:31;9.00;;;7.47;;
32329;SDS011;18807;52.434;13.238;2023-05-20T17:55:05;12.65;;;6.88;;
32329;SDS011;18807;52.434;13.238;2023-05-20T18:02:42;8.93;;;6.55;;
32329;SDS011;18807;52.434;13.238;2023-05-20T18:10:19;9.13;;;6.40;;
32329;SDS011;18807;52.434;13.238;2023-05-20T18:17:54;10.95;;;7.43;;
32329;SDS011;18807;52.434;13.238;2023-05-20T18:25:28;9.95;;;6.75;;
32329;SDS011;18807;52.434;13.238;2023-05-20T18:33:04;8.70;;;6.47;;
32329;SDS011;18807;52.434;13.238;2023-05-20T18:40:38;9.15;;;6.60;;
32329;SDS011;18807;52.434;13.238;2023-05-20T18:48:14;9.52;;;6.35;;
32329;SDS011;18807;52.434;13.238;2023-05-20T18:55:57;7.23;;;5.67;;
32329;SDS011;18807;52.434;13.238;2023-05-20T19:03:35;8.43;;;6.53;;
32329;SDS011;18807;52.434;13.238;2023-05-20T19:11:09;7.75;;;6.20;;
32329;SDS011;18807;52.434;13.238;2023-05-20T19:18:45;9.13;;;5.70;;
32329;SDS011;18807;52.434;13.238;2023-05-20T19:26:20;9.98;;;6.38;;
32329;SDS011;18807;52.434;13.238;2023-05-20T19:33:55;7.80;;;5.73;;
32329;SDS011;18807;52.434;13.238;2023-05-20T19:41:29;7.50;;;5.50;;
32329;SDS011;18807;52.434;13.238;2023-05-20T19:49:05;10.17;;;7.83;;
32329;SDS011;18807;52.434;13.238;2023-05-20T19:56:39;10.13;;;6.47;;
32329;SDS011;18807;52.434;13.238;2023-05-20T20:04:14;9.40;;;6.90;;
32329;SDS011;18807;52.434;13.238;2023-05-20T20:11:49;10.15;;;7.30;;
32329;SDS011;18807;52.434;13.238;2023-05-20T20:19:25;9.33;;;7.00;;
32329;SDS011;18807;52.434;13.238;2023-05-20T20:26:59;10.07;;;6.93;;
32329;SDS011;18807;52.434;13.238;2023-05-20T20:34:35;9.30;;;7.05;;
32329;SDS011;18807;52.434;13.238;2023-05-20T20:42:09;11.05;;;6.53;;
32329;SDS011;18807;52.434;13.238;2023-05-20T20:49:44;8.52;;;7.57;;
32329;SDS011;18807;52.434;13.238;2023-05-20T20:57:21;7.97;;;7.13;;
32329;SDS011;18807;52.434;13.238;2023-05-20T21:04:56;8.33;;;7.30;;
32329;SDS011;18807;52.434;13.238;2023-05-20T21:12:33;9.05;;;7.38;;
32329;SDS011;18807;52.434;13.238;2023-05-20T21:20:09;9.10;;;7.90;;
32329;SDS011;18807;52.434;13.238;2023-05-20T21:27:44;11.10;;;8.48;;
32329;SDS011;18807;52.434;13.238;2023-05-20T21:35:19;9.23;;;7.63;;
32329;SDS011;18807;52.434;13.238;2023-05-20T21:42:53;12.00;;;9.07;;
32329;SDS011;18807;52.434;13.238;2023-05-20T21:50:29;9.70;;;8.73;;
32329;SDS011;18807;52.434;13.238;2023-05-20T21:58:03;14.10;;;10.50;;
32329;SDS011;18807;52.434;13.238;2023-05-20T22:05:39;12.30;;;9.33;;
32329;SDS011;18807;52.434;13.238;2023-05-20T22:13:17;13.25;;;10.50;;
32329;SDS011;18807;52.434;13.238;2023-05-20T22:20:53;14.95;;;11.65;;
32329;SDS011;18807;52.434;13.238;2023-05-20T22:28:27;13.55;;;11.40;;
32329;SDS011;18807;52.434;13.238;2023-05-20T22:36:03;11.63;;;10.30;;
32329;SDS011;18807;52.434;13.238;2023-05-20T22:43:37;16.25;;;11.15;;
32329;SDS011;18807;52.434;13.238;2023-05-20T22:51:13;14.63;;;10.60;;
32329;SDS011;18807;52.434;13.238;2023-05-20T22:58:47;11.82;;;10.60;;
32329;SDS011;18807;52.434;13.238;2023-05-20T23:06:23;13.25;;;11.57;;
32329;SDS011;18807;52.434;13.238;2023-05-20T23:13:58;20.52;;;13.35;;
32329;SDS011;18807;52.434;13.238;2023-05-20T23:21:33;14.73;;;12.73;;
32329;SDS011;18807;52.434;13.238;2023-05-20T23:29:08;12.73;;;11.35;;
32329;SDS011;18807;52.434;13.238;2023-05-20T23:36:44;16.50;;;13.00;;
32329;SDS011;18807;52.434;13.238;2023-05-20T23:44:18;16.60;;;13.65;;
32329;SDS011;18807;52.434;13.238;2023-05-20T23:51:53;17.80;;;13.63;;
32329;SDS011;18807;52.434;13.238;2023-05-20T23:59:27;14.80;;;12.93;;
